sensor_id;sensor_type;location;lat;lon;timestamp;temperature;humidity
2212;DHT22;48849;48.758;9.158;2023-02-15T00:00:01;4.70;99.90
2212;DHT22;48849;48.758;9.158;2023-02-15T00:02:28;4.60;99.90
2212;DHT22;48849;48.758;9.158;2023-02-15T00:04:54;4.60;99.90
2212;DHT22;48849;48.758;9.158;2023-02-15T00:07:21;4.60;99.90
2212;DHT22;48849;48.758;9.158;2023-02-15T00:09:48;4.60;99.90
2212;DHT22;48849;48.758;9.158;2023-02-15T00:12:15;4.60;99.90
2212;DHT22;48849;48.758;9.158;2023-02-15T00:14:42;4.60;99.90
2212;DHT22;48849;48.758;9.158;2023-02-15T00:17:10;4.50;99.90
2212;DHT22;48849;48.758;9.158;2023-02-15T00:19:37;4.40;99.90
2212;DHT22;48849;48.758;9.158;2023-02-15T00:22:05;4.50;99.90
2212;DHT22;48849;48.758;9.158;2023-02-15T00:24:32;4.50;99.90
2212;DHT22;48849;48.758;9.158;2023-02-15T00:29:26;4.50;99.90
2212;DHT22;48849;48.758;9.158;2023-02-15T00:31:53;4.40;99.90
2212;DHT22;48849;48.758;9.158;2023-02-15T00:34:23;4.50;99.90
2212;DHT22;48849;48.758;9.158;2023-02-15T00:36:50;4.50;99.90
2212;DHT22;48849;48.758;9.158;2023-02-15T00:39:17;4.50;99.90
2212;DHT22;48849;48.758;9.158;2023-02-15T00:41:45;4.50;99.90
2212;DHT22;48849;48.758;9.158;2023-02-15T00:44:12;4.50;99.90
2212;DHT22;48849;48.758;9.158;2023-02-15T00:46:39;4.50;99.90
2212;DHT22;48849;48.758;9.158;2023-02-15T00:51:34;4.40;99.90
2212;DHT22;48849;48.758;9.158;2023-02-15T00:54:01;4.30;99.90
2212;DHT22;48849;48.758;9.158;2023-02-15T00:58:55;4.20;99.90
2212;DHT22;48849;48.758;9.158;2023-02-15T01:01:22;4.30;99.90
2212;DHT22;48849;48.758;9.158;2023-02-15T01:08:47;4.30;99.90
2212;DHT22;48849;48.758;9.158;2023-02-15T01:11:16;4.40;99.90
2212;DHT22;48849;48.758;9.158;2023-02-15T01:13:47;4.40;99.90
2212;DHT22;48849;48.758;9.158;2023-02-15T01:21:10;4.40;99.90
2212;DHT22;48849;48.758;9.158;2023-02-15T01:26:05;4.40;99.90
2212;DHT22;48849;48.758;9.158;2023-02-15T01:30:59;4.40;99.90
2212;DHT22;48849;48.758;9.158;2023-02-15T01:35:56;4.30;99.90
2212;DHT22;48849;48.758;9.158;2023-02-15T01:38:23;4.30;99.90
2212;DHT22;48849;48.758;9.158;2023-02-15T01:40:50;4.30;99.90
2212;DHT22;48849;48.758;9.158;2023-02-15T01:43:19;4.30;99.90
2212;DHT22;48849;48.758;9.158;2023-02-15T01:45:47;4.30;99.90
2212;DHT22;48849;48.758;9.158;2023-02-15T01:48:19;4.30;99.90
2212;DHT22;48849;48.758;9.158;2023-02-15T01:50:50;4.30;99.90
2212;DHT22;48849;48.758;9.158;2023-02-15T01:53:23;4.20;99.90
2212;DHT22;48849;48.758;9.158;2023-02-15T01:55:54;4.20;99.90
2212;DHT22;48849;48.758;9.158;2023-02-15T01:58:26;4.20;99.90
2212;DHT22;48849;48.758;9.158;2023-02-15T02:00:57;4.20;99.90
2212;DHT22;48849;48.758;9.158;2023-02-15T02:03:34;4.20;99.90
2212;DHT22;48849;48.758;9.158;2023-02-15T02:06:03;4.20;99.90
2212;DHT22;48849;48.758;9.158;2023-02-15T02:10:56;4.00;99.90
2212;DHT22;48849;48.758;9.158;2023-02-15T02:13:25;4.00;99.90
2212;DHT22;48849;48.758;9.158;2023-02-15T02:15:57;4.00;99.90
2212;DHT22;48849;48.758;9.158;2023-02-15T02:18:37;3.80;99.90
2212;DHT22;48849;48.758;9.158;2023-02-15T02:21:34;3.80;99.90
2212;DHT22;48849;48.758;9.158;2023-02-15T02:24:34;4.00;99.90
2212;DHT22;48849;48.758;9.158;2023-02-15T02:27:22;3.80;99.90
2212;DHT22;48849;48.758;9.158;2023-02-15T02:33:16;3.80;99.90
2212;DHT22;48849;48.758;9.158;2023-02-15T02:35:49;3.60;99.90
2212;DHT22;48849;48.758;9.158;2023-02-15T02:38:25;3.60;99.90
2212;DHT22;48849;48.758;9.158;2023-02-15T02:41:03;3.50;99.90
2212;DHT22;48849;48.758;9.158;2023-02-15T02:43:37;3.60;99.90
2212;DHT22;48849;48.758;9.158;2023-02-15T02:46:08;3.70;99.90
2212;DHT22;48849;48.758;9.158;2023-02-15T02:48:39;3.70;99.90
2212;DHT22;48849;48.758;9.158;2023-02-15T02:51:06;3.70;99.90
2212;DHT22;48849;48.758;9.158;2023-02-15T02:53:33;3.70;99.90
2212;DHT22;48849;48.758;9.158;2023-02-15T02:56:05;3.70;99.90
2212;DHT22;48849;48.758;9.158;2023-02-15T02:58:36;3.70;99.90
2212;DHT22;48849;48.758;9.158;2023-02-15T03:01:07;3.70;99.90
2212;DHT22;48849;48.758;9.158;2023-02-15T03:03:39;3.60;99.90
2212;DHT22;48849;48.758;9.158;2023-02-15T03:06:10;3.50;99.90
2212;DHT22;48849;48.758;9.158;2023-02-15T03:08:40;3.50;99.90
2212;DHT22;48849;48.758;9.158;2023-02-15T03:11:09;3.60;99.90
2212;DHT22;48849;48.758;9.158;2023-02-15T03:13:37;3.60;99.90
2212;DHT22;48849;48.758;9.158;2023-02-15T03:16:05;3.70;99.90
2212;DHT22;48849;48.758;9.158;2023-02-15T03:18:55;3.70;99.90
2212;DHT22;48849;48.758;9.158;2023-02-15T03:21:28;3.70;99.90
2212;DHT22;48849;48.758;9.158;2023-02-15T03:24:01;3.60;99.90
2212;DHT22;48849;48.758;9.158;2023-02-15T03:26:30;3.60;99.90
2212;DHT22;48849;48.758;9.158;2023-02-15T03:28:59;3.60;99.90
2212;DHT22;48849;48.758;9.158;2023-02-15T03:31:31;3.60;99.90
2212;DHT22;48849;48.758;9.158;2023-02-15T03:34:02;3.60;99.90
2212;DHT22;48849;48.758;9.158;2023-02-15T03:36:33;3.50;99.90
2212;DHT22;48849;48.758;9.158;2023-02-15T03:39:09;3.50;99.90
2212;DHT22;48849;48.758;9.158;2023-02-15T03:41:40;3.50;99.90
2212;DHT22;48849;48.758;9.158;2023-02-15T03:44:13;3.50;99.90
2212;DHT22;48849;48.758;9.158;2023-02-15T03:46:45;3.60;99.90
2212;DHT22;48849;48.758;9.158;2023-02-15T03:49:18;3.70;99.90
2212;DHT22;48849;48.758;9.158;2023-02-15T03:51:48;3.70;99.90
2212;DHT22;48849;48.758;9.158;2023-02-15T03:54:18;3.60;99.90
2212;DHT22;48849;48.758;9.158;2023-02-15T03:57:01;3.50;99.90
2212;DHT22;48849;48.758;9.158;2023-02-15T03:59:41;3.50;99.90
2212;DHT22;48849;48.758;9.158;2023-02-15T04:02:29;3.50;99.90
2212;DHT22;48849;48.758;9.158;2023-02-15T04:05:01;3.50;99.90
2212;DHT22;48849;48.758;9.158;2023-02-15T04:07:28;3.50;99.90
2212;DHT22;48849;48.758;9.158;2023-02-15T04:12:39;3.50;99.90
2212;DHT22;48849;48.758;9.158;2023-02-15T04:15:07;3.40;99.90
2212;DHT22;48849;48.758;9.158;2023-02-15T04:20:20;3.40;99.90
2212;DHT22;48849;48.758;9.158;2023-02-15T04:23:05;3.40;99.90
2212;DHT22;48849;48.758;9.158;2023-02-15T04:25:49;3.40;99.90
2212;DHT22;48849;48.758;9.158;2023-02-15T04:30:43;3.50;99.90
2212;DHT22;48849;48.758;9.158;2023-02-15T04:35:38;3.60;99.90
2212;DHT22;48849;48.758;9.158;2023-02-15T04:40:32;3.50;99.90
2212;DHT22;48849;48.758;9.158;2023-02-15T04:42:59;3.40;99.90
2212;DHT22;48849;48.758;9.158;2023-02-15T04:47:53;3.40;99.90
2212;DHT22;48849;48.758;9.158;2023-02-15T04:52:48;3.50;99.90
2212;DHT22;48849;48.758;9.158;2023-02-15T04:55:15;3.40;99.90
2212;DHT22;48849;48.758;9.158;2023-02-15T04:57:41;3.30;99.90
2212;DHT22;48849;48.758;9.158;2023-02-15T05:02:35;3.30;99.90
2212;DHT22;48849;48.758;9.158;2023-02-15T05:05:03;3.40;99.90
2212;DHT22;48849;48.758;9.158;2023-02-15T05:07:30;3.40;99.90
2212;DHT22;48849;48.758;9.158;2023-02-15T05:09:58;3.40;99.90
2212;DHT22;48849;48.758;9.158;2023-02-15T05:17:19;3.30;99.90
2212;DHT22;48849;48.758;9.158;2023-02-15T05:19:45;3.30;99.90
2212;DHT22;48849;48.758;9.158;2023-02-15T05:24:39;3.40;99.90
2212;DHT22;48849;48.758;9.158;2023-02-15T05:27:25;3.40;99.90
2212;DHT22;48849;48.758;9.158;2023-02-15T05:30:10;3.30;99.90
2212;DHT22;48849;48.758;9.158;2023-02-15T05:32:37;3.20;99.90
2212;DHT22;48849;48.758;9.158;2023-02-15T05:42:27;3.30;99.90
2212;DHT22;48849;48.758;9.158;2023-02-15T05:47:20;3.40;99.90
2212;DHT22;48849;48.758;9.158;2023-02-15T05:54:41;3.30;99.90
2212;DHT22;48849;48.758;9.158;2023-02-15T05:57:07;3.20;99.90
2212;DHT22;48849;48.758;9.158;2023-02-15T05:59:35;3.10;99.90
2212;DHT22;48849;48.758;9.158;2023-02-15T06:06:58;3.20;99.90
2212;DHT22;48849;48.758;9.158;2023-02-15T06:09:25;3.20;99.90
2212;DHT22;48849;48.758;9.158;2023-02-15T06:11:52;3.20;99.90
2212;DHT22;48849;48.758;9.158;2023-02-15T06:16:47;3.20;99.90
2212;DHT22;48849;48.758;9.158;2023-02-15T06:19:13;3.20;99.90
2212;DHT22;48849;48.758;9.158;2023-02-15T06:21:40;3.10;99.90
2212;DHT22;48849;48.758;9.158;2023-02-15T06:24:08;3.20;99.90
2212;DHT22;48849;48.758;9.158;2023-02-15T06:26:34;3.20;99.90
2212;DHT22;48849;48.758;9.158;2023-02-15T06:29:01;3.30;99.90
2212;DHT22;48849;48.758;9.158;2023-02-15T06:33:56;3.30;99.90
2212;DHT22;48849;48.758;9.158;2023-02-15T06:36:26;3.30;99.90
2212;DHT22;48849;48.758;9.158;2023-02-15T06:38:53;3.30;99.90
2212;DHT22;48849;48.758;9.158;2023-02-15T06:43:46;3.20;99.90
2212;DHT22;48849;48.758;9.158;2023-02-15T06:46:13;3.30;99.90
2212;DHT22;48849;48.758;9.158;2023-02-15T06:48:40;3.30;99.90
2212;DHT22;48849;48.758;9.158;2023-02-15T06:51:08;3.30;99.90
2212;DHT22;48849;48.758;9.158;2023-02-15T06:53:35;3.30;99.90
2212;DHT22;48849;48.758;9.158;2023-02-15T06:56:02;3.20;99.90
2212;DHT22;48849;48.758;9.158;2023-02-15T06:58:31;3.20;99.90
2212;DHT22;48849;48.758;9.158;2023-02-15T07:00:58;3.10;99.90
2212;DHT22;48849;48.758;9.158;2023-02-15T07:03:25;3.20;99.90
2212;DHT22;48849;48.758;9.158;2023-02-15T07:05:54;3.10;99.90
2212;DHT22;48849;48.758;9.158;2023-02-15T07:08:22;3.20;99.90
2212;DHT22;48849;48.758;9.158;2023-02-15T07:10:50;3.10;99.90
2212;DHT22;48849;48.758;9.158;2023-02-15T07:13:16;3.20;99.90
2212;DHT22;48849;48.758;9.158;2023-02-15T07:15:42;3.20;99.90
2212;DHT22;48849;48.758;9.158;2023-02-15T07:20:37;3.30;99.90
2212;DHT22;48849;48.758;9.158;2023-02-15T07:23:06;3.40;99.90
2212;DHT22;48849;48.758;9.158;2023-02-15T07:25:35;3.50;99.90
2212;DHT22;48849;48.758;9.158;2023-02-15T07:28:03;3.50;99.90
2212;DHT22;48849;48.758;9.158;2023-02-15T07:30:30;3.50;99.90
2212;DHT22;48849;48.758;9.158;2023-02-15T07:32:57;3.60;99.90
2212;DHT22;48849;48.758;9.158;2023-02-15T07:35:46;3.60;99.90
2212;DHT22;48849;48.758;9.158;2023-02-15T07:38:13;3.60;99.90
2212;DHT22;48849;48.758;9.158;2023-02-15T07:40:42;3.60;99.90
2212;DHT22;48849;48.758;9.158;2023-02-15T07:48:03;3.70;99.90
2212;DHT22;48849;48.758;9.158;2023-02-15T07:52:57;3.70;99.90
2212;DHT22;48849;48.758;9.158;2023-02-15T07:55:24;3.70;99.90
2212;DHT22;48849;48.758;9.158;2023-02-15T07:57:52;3.70;99.90
2212;DHT22;48849;48.758;9.158;2023-02-15T08:00:21;3.70;99.90
2212;DHT22;48849;48.758;9.158;2023-02-15T08:02:51;3.70;99.90
2212;DHT22;48849;48.758;9.158;2023-02-15T08:05:38;3.70;99.90
2212;DHT22;48849;48.758;9.158;2023-02-15T08:08:05;3.80;99.90
2212;DHT22;48849;48.758;9.158;2023-02-15T08:10:32;3.80;99.90
2212;DHT22;48849;48.758;9.158;2023-02-15T08:13:18;3.80;99.90
2212;DHT22;48849;48.758;9.158;2023-02-15T08:15:48;3.80;99.90
2212;DHT22;48849;48.758;9.158;2023-02-15T08:18:15;3.90;99.90
2212;DHT22;48849;48.758;9.158;2023-02-15T08:20:41;3.90;99.90
2212;DHT22;48849;48.758;9.158;2023-02-15T08:23:08;3.90;99.90
2212;DHT22;48849;48.758;9.158;2023-02-15T08:25:35;4.00;99.90
2212;DHT22;48849;48.758;9.158;2023-02-15T08:28:02;4.00;99.90
2212;DHT22;48849;48.758;9.158;2023-02-15T08:30:30;4.00;99.90
2212;DHT22;48849;48.758;9.158;2023-02-15T08:35:24;4.00;99.90
2212;DHT22;48849;48.758;9.158;2023-02-15T08:37:51;4.00;99.90
2212;DHT22;48849;48.758;9.158;2023-02-15T08:42:45;4.10;99.90
2212;DHT22;48849;48.758;9.158;2023-02-15T08:45:11;4.10;99.90
2212;DHT22;48849;48.758;9.158;2023-02-15T08:47:39;4.10;99.90
2212;DHT22;48849;48.758;9.158;2023-02-15T08:50:06;4.20;99.90
2212;DHT22;48849;48.758;9.158;2023-02-15T08:52:33;4.20;99.90
2212;DHT22;48849;48.758;9.158;2023-02-15T08:55:00;4.20;99.90
2212;DHT22;48849;48.758;9.158;2023-02-15T08:57:27;4.20;99.90
2212;DHT22;48849;48.758;9.158;2023-02-15T08:59:53;4.40;99.90
2212;DHT22;48849;48.758;9.158;2023-02-15T09:04:49;4.50;99.90
2212;DHT22;48849;48.758;9.158;2023-02-15T09:14:39;4.50;99.90
2212;DHT22;48849;48.758;9.158;2023-02-15T09:19:33;4.50;99.90
2212;DHT22;48849;48.758;9.158;2023-02-15T09:22:01;4.60;99.90
2212;DHT22;48849;48.758;9.158;2023-02-15T09:24:27;4.60;99.90
2212;DHT22;48849;48.758;9.158;2023-02-15T09:26:57;4.60;99.90
2212;DHT22;48849;48.758;9.158;2023-02-15T09:31:51;4.70;99.90
2212;DHT22;48849;48.758;9.158;2023-02-15T09:34:21;4.70;99.90
2212;DHT22;48849;48.758;9.158;2023-02-15T09:36:48;4.70;99.90
2212;DHT22;48849;48.758;9.158;2023-02-15T09:39:19;4.70;99.90
2212;DHT22;48849;48.758;9.158;2023-02-15T09:42:11;4.80;99.90
2212;DHT22;48849;48.758;9.158;2023-02-15T09:44:55;4.80;99.90
2212;DHT22;48849;48.758;9.158;2023-02-15T09:50:42;4.90;99.90
2212;DHT22;48849;48.758;9.158;2023-02-15T09:53:28;4.90;99.90
2212;DHT22;48849;48.758;9.158;2023-02-15T09:56:02;4.90;99.90
2212;DHT22;48849;48.758;9.158;2023-02-15T09:58:36;4.90;99.90
2212;DHT22;48849;48.758;9.158;2023-02-15T10:01:09;5.00;99.90
2212;DHT22;48849;48.758;9.158;2023-02-15T10:03:53;4.90;99.90
2212;DHT22;48849;48.758;9.158;2023-02-15T10:06:35;5.00;99.90
2212;DHT22;48849;48.758;9.158;2023-02-15T10:09:22;5.00;99.90
2212;DHT22;48849;48.758;9.158;2023-02-15T10:12:04;5.10;99.90
2212;DHT22;48849;48.758;9.158;2023-02-15T10:14:45;5.10;99.90
2212;DHT22;48849;48.758;9.158;2023-02-15T10:17:29;5.10;99.90
2212;DHT22;48849;48.758;9.158;2023-02-15T10:20:10;5.20;99.90
2212;DHT22;48849;48.758;9.158;2023-02-15T10:22:51;5.20;99.90
2212;DHT22;48849;48.758;9.158;2023-02-15T10:25:39;5.30;99.90
2212;DHT22;48849;48.758;9.158;2023-02-15T10:28:16;5.30;99.90
2212;DHT22;48849;48.758;9.158;2023-02-15T10:30:46;5.30;99.90
2212;DHT22;48849;48.758;9.158;2023-02-15T10:33:24;5.40;99.90
2212;DHT22;48849;48.758;9.158;2023-02-15T10:36:01;5.40;99.90
2212;DHT22;48849;48.758;9.158;2023-02-15T10:38:33;5.50;99.90
2212;DHT22;48849;48.758;9.158;2023-02-15T10:41:13;5.50;99.90
2212;DHT22;48849;48.758;9.158;2023-02-15T10:43:56;5.50;99.90
2212;DHT22;48849;48.758;9.158;2023-02-15T10:46:48;4.00;99.90
2212;DHT22;48849;48.758;9.158;2023-02-15T10:52:21;5.70;99.90
2212;DHT22;48849;48.758;9.158;2023-02-15T10:54:59;5.70;99.90
2212;DHT22;48849;48.758;9.158;2023-02-15T10:57:36;5.80;99.90
2212;DHT22;48849;48.758;9.158;2023-02-15T11:00:10;5.80;99.90
2212;DHT22;48849;48.758;9.158;2023-02-15T11:02:52;5.90;99.90
2212;DHT22;48849;48.758;9.158;2023-02-15T11:05:29;6.00;99.90
2212;DHT22;48849;48.758;9.158;2023-02-15T11:08:00;6.00;99.90
2212;DHT22;48849;48.758;9.158;2023-02-15T11:10:33;6.10;99.90
2212;DHT22;48849;48.758;9.158;2023-02-15T11:13:05;6.10;99.90
2212;DHT22;48849;48.758;9.158;2023-02-15T11:15:39;6.20;99.90
2212;DHT22;48849;48.758;9.158;2023-02-15T11:18:11;6.20;99.90
2212;DHT22;48849;48.758;9.158;2023-02-15T11:20:42;6.20;99.90
2212;DHT22;48849;48.758;9.158;2023-02-15T11:23:13;6.30;99.90
2212;DHT22;48849;48.758;9.158;2023-02-15T11:25:43;6.30;99.90
2212;DHT22;48849;48.758;9.158;2023-02-15T11:28:18;6.30;99.90
2212;DHT22;48849;48.758;9.158;2023-02-15T11:30:50;6.40;99.90
2212;DHT22;48849;48.758;9.158;2023-02-15T11:33:20;6.40;99.90
2212;DHT22;48849;48.758;9.158;2023-02-15T11:35:52;6.50;99.90
2212;DHT22;48849;48.758;9.158;2023-02-15T11:38:21;6.50;99.90
2212;DHT22;48849;48.758;9.158;2023-02-15T11:40:51;6.60;99.90
2212;DHT22;48849;48.758;9.158;2023-02-15T11:43:26;6.70;99.90
2212;DHT22;48849;48.758;9.158;2023-02-15T11:45:56;6.80;99.90
2212;DHT22;48849;48.758;9.158;2023-02-15T11:48:23;6.90;99.90
2212;DHT22;48849;48.758;9.158;2023-02-15T11:50:49;7.10;99.90
2212;DHT22;48849;48.758;9.158;2023-02-15T11:53:18;7.10;99.90
2212;DHT22;48849;48.758;9.158;2023-02-15T11:55:48;7.20;99.90
2212;DHT22;48849;48.758;9.158;2023-02-15T11:58:25;7.40;99.90
2212;DHT22;48849;48.758;9.158;2023-02-15T12:01:00;7.50;99.90
2212;DHT22;48849;48.758;9.158;2023-02-15T12:03:33;7.60;99.90
2212;DHT22;48849;48.758;9.158;2023-02-15T12:06:11;7.60;99.90
2212;DHT22;48849;48.758;9.158;2023-02-15T12:08:42;7.70;99.90
2212;DHT22;48849;48.758;9.158;2023-02-15T12:11:14;7.70;99.90
2212;DHT22;48849;48.758;9.158;2023-02-15T12:13:54;7.80;99.90
2212;DHT22;48849;48.758;9.158;2023-02-15T12:16:23;7.90;99.90
2212;DHT22;48849;48.758;9.158;2023-02-15T12:18:52;7.90;99.90
2212;DHT22;48849;48.758;9.158;2023-02-15T12:21:26;7.90;99.90
2212;DHT22;48849;48.758;9.158;2023-02-15T12:23:55;7.90;99.90
2212;DHT22;48849;48.758;9.158;2023-02-15T12:26:24;7.90;99.90
2212;DHT22;48849;48.758;9.158;2023-02-15T12:28:52;7.90;99.90
2212;DHT22;48849;48.758;9.158;2023-02-15T12:31:27;7.80;99.90
2212;DHT22;48849;48.758;9.158;2023-02-15T12:33:56;7.80;99.90
2212;DHT22;48849;48.758;9.158;2023-02-15T12:36:25;7.70;99.90
2212;DHT22;48849;48.758;9.158;2023-02-15T12:39:19;7.70;99.90
2212;DHT22;48849;48.758;9.158;2023-02-15T12:42:02;7.60;99.90
2212;DHT22;48849;48.758;9.158;2023-02-15T12:44:31;7.50;99.90
2212;DHT22;48849;48.758;9.158;2023-02-15T12:47:02;7.50;99.90
2212;DHT22;48849;48.758;9.158;2023-02-15T12:49:30;7.50;99.90
2212;DHT22;48849;48.758;9.158;2023-02-15T12:51:58;7.50;99.90
2212;DHT22;48849;48.758;9.158;2023-02-15T12:54:35;7.50;99.90
2212;DHT22;48849;48.758;9.158;2023-02-15T12:57:19;7.50;99.90
2212;DHT22;48849;48.758;9.158;2023-02-15T12:59:51;7.40;99.90
2212;DHT22;48849;48.758;9.158;2023-02-15T13:02:27;7.50;99.90
2212;DHT22;48849;48.758;9.158;2023-02-15T13:04:56;7.40;99.90
2212;DHT22;48849;48.758;9.158;2023-02-15T13:07:25;7.40;99.90
2212;DHT22;48849;48.758;9.158;2023-02-15T13:09:56;7.40;99.90
2212;DHT22;48849;48.758;9.158;2023-02-15T13:12:24;7.40;99.90
2212;DHT22;48849;48.758;9.158;2023-02-15T13:14:53;7.40;99.90
2212;DHT22;48849;48.758;9.158;2023-02-15T13:17:26;7.50;99.90
2212;DHT22;48849;48.758;9.158;2023-02-15T13:19:56;7.50;99.90
2212;DHT22;48849;48.758;9.158;2023-02-15T13:22:27;7.50;99.90
2212;DHT22;48849;48.758;9.158;2023-02-15T13:25:01;7.50;99.90
2212;DHT22;48849;48.758;9.158;2023-02-15T13:27:31;7.60;99.90
2212;DHT22;48849;48.758;9.158;2023-02-15T13:30:03;7.60;99.90
2212;DHT22;48849;48.758;9.158;2023-02-15T13:32:39;7.60;99.90
2212;DHT22;48849;48.758;9.158;2023-02-15T13:35:14;7.60;99.90
2212;DHT22;48849;48.758;9.158;2023-02-15T13:38:02;7.60;99.90
2212;DHT22;48849;48.758;9.158;2023-02-15T13:40:34;7.60;99.90
2212;DHT22;48849;48.758;9.158;2023-02-15T13:43:10;7.60;99.90
2212;DHT22;48849;48.758;9.158;2023-02-15T13:45:43;7.60;99.90
2212;DHT22;48849;48.758;9.158;2023-02-15T13:48:20;7.60;99.90
2212;DHT22;48849;48.758;9.158;2023-02-15T13:51:00;7.60;99.90
2212;DHT22;48849;48.758;9.158;2023-02-15T13:53:40;7.60;99.90
2212;DHT22;48849;48.758;9.158;2023-02-15T13:56:16;7.50;99.90
2212;DHT22;48849;48.758;9.158;2023-02-15T13:59:11;7.50;99.90
2212;DHT22;48849;48.758;9.158;2023-02-15T14:01:45;7.50;99.90
2212;DHT22;48849;48.758;9.158;2023-02-15T14:04:35;7.50;99.90
2212;DHT22;48849;48.758;9.158;2023-02-15T14:07:19;7.50;99.90
2212;DHT22;48849;48.758;9.158;2023-02-15T14:10:01;7.40;99.90
2212;DHT22;48849;48.758;9.158;2023-02-15T14:12:42;7.40;99.90
2212;DHT22;48849;48.758;9.158;2023-02-15T14:15:28;7.40;99.90
2212;DHT22;48849;48.758;9.158;2023-02-15T14:18:04;7.40;99.90
2212;DHT22;48849;48.758;9.158;2023-02-15T14:20:41;7.40;99.90
2212;DHT22;48849;48.758;9.158;2023-02-15T14:23:17;7.40;99.90
2212;DHT22;48849;48.758;9.158;2023-02-15T14:25:55;7.40;99.90
2212;DHT22;48849;48.758;9.158;2023-02-15T14:28:28;7.40;99.90
2212;DHT22;48849;48.758;9.158;2023-02-15T14:30:58;7.50;99.90
2212;DHT22;48849;48.758;9.158;2023-02-15T14:33:33;7.50;99.90
2212;DHT22;48849;48.758;9.158;2023-02-15T14:36:05;7.40;99.90
2212;DHT22;48849;48.758;9.158;2023-02-15T14:38:54;7.50;99.90
2212;DHT22;48849;48.758;9.158;2023-02-15T14:41:28;7.50;99.90
2212;DHT22;48849;48.758;9.158;2023-02-15T14:44:01;7.50;99.90
2212;DHT22;48849;48.758;9.158;2023-02-15T14:46:33;7.50;99.90
2212;DHT22;48849;48.758;9.158;2023-02-15T14:49:06;7.50;99.90
2212;DHT22;48849;48.758;9.158;2023-02-15T14:52:03;7.50;99.90
2212;DHT22;48849;48.758;9.158;2023-02-15T14:54:55;7.50;99.90
2212;DHT22;48849;48.758;9.158;2023-02-15T14:57:24;7.40;99.90
2212;DHT22;48849;48.758;9.158;2023-02-15T14:59:54;7.40;99.90
2212;DHT22;48849;48.758;9.158;2023-02-15T15:02:25;7.40;99.90
2212;DHT22;48849;48.758;9.158;2023-02-15T15:04:59;7.40;99.90
2212;DHT22;48849;48.758;9.158;2023-02-15T15:07:36;7.40;99.90
2212;DHT22;48849;48.758;9.158;2023-02-15T15:10:05;7.40;99.90
2212;DHT22;48849;48.758;9.158;2023-02-15T15:12:42;7.40;99.90
2212;DHT22;48849;48.758;9.158;2023-02-15T15:15:13;7.30;99.90
2212;DHT22;48849;48.758;9.158;2023-02-15T15:17:55;7.30;99.90
2212;DHT22;48849;48.758;9.158;2023-02-15T15:20:43;7.30;99.90
2212;DHT22;48849;48.758;9.158;2023-02-15T15:23:38;7.30;99.90
2212;DHT22;48849;48.758;9.158;2023-02-15T15:26:27;7.30;99.90
2212;DHT22;48849;48.758;9.158;2023-02-15T15:28:58;7.30;99.90
2212;DHT22;48849;48.758;9.158;2023-02-15T15:31:36;7.20;99.90
2212;DHT22;48849;48.758;9.158;2023-02-15T15:37:35;7.20;99.90
2212;DHT22;48849;48.758;9.158;2023-02-15T15:40:42;7.20;99.90
2212;DHT22;48849;48.758;9.158;2023-02-15T15:43:40;7.20;99.90
2212;DHT22;48849;48.758;9.158;2023-02-15T15:49:15;7.10;99.90
2212;DHT22;48849;48.758;9.158;2023-02-15T15:51:43;7.20;99.90
2212;DHT22;48849;48.758;9.158;2023-02-15T15:54:15;7.20;99.90
2212;DHT22;48849;48.758;9.158;2023-02-15T15:56:47;7.30;99.90
2212;DHT22;48849;48.758;9.158;2023-02-15T15:59:18;7.20;99.90
2212;DHT22;48849;48.758;9.158;2023-02-15T16:01:46;7.20;99.90
2212;DHT22;48849;48.758;9.158;2023-02-15T16:04:22;7.20;99.90
2212;DHT22;48849;48.758;9.158;2023-02-15T16:06:50;7.30;99.90
2212;DHT22;48849;48.758;9.158;2023-02-15T16:09:18;6.20;99.90
2212;DHT22;48849;48.758;9.158;2023-02-15T16:11:48;7.30;99.90
2212;DHT22;48849;48.758;9.158;2023-02-15T16:14:19;7.40;99.90
2212;DHT22;48849;48.758;9.158;2023-02-15T16:16:49;7.30;99.90
2212;DHT22;48849;48.758;9.158;2023-02-15T16:19:23;7.30;99.90
2212;DHT22;48849;48.758;9.158;2023-02-15T16:21:50;7.40;99.90
2212;DHT22;48849;48.758;9.158;2023-02-15T16:24:24;7.30;99.90
2212;DHT22;48849;48.758;9.158;2023-02-15T16:27:17;7.30;99.90
2212;DHT22;48849;48.758;9.158;2023-02-15T16:32:18;7.20;99.90
2212;DHT22;48849;48.758;9.158;2023-02-15T16:34:53;7.20;99.90
2212;DHT22;48849;48.758;9.158;2023-02-15T16:37:21;7.10;99.90
2212;DHT22;48849;48.758;9.158;2023-02-15T16:39:51;7.10;99.90
2212;DHT22;48849;48.758;9.158;2023-02-15T16:42:19;7.10;99.90
2212;DHT22;48849;48.758;9.158;2023-02-15T16:44:49;7.10;99.90
2212;DHT22;48849;48.758;9.158;2023-02-15T16:47:18;7.10;99.90
2212;DHT22;48849;48.758;9.158;2023-02-15T16:49:48;7.00;99.90
2212;DHT22;48849;48.758;9.158;2023-02-15T16:52:19;7.00;99.90
2212;DHT22;48849;48.758;9.158;2023-02-15T16:54:51;7.00;99.90
2212;DHT22;48849;48.758;9.158;2023-02-15T16:57:23;7.00;99.90
2212;DHT22;48849;48.758;9.158;2023-02-15T16:59:52;7.00;99.90
2212;DHT22;48849;48.758;9.158;2023-02-15T17:02:22;10.60;99.90
2212;DHT22;48849;48.758;9.158;2023-02-15T17:05:06;6.90;99.90
2212;DHT22;48849;48.758;9.158;2023-02-15T17:10:00;6.90;99.90
2212;DHT22;48849;48.758;9.158;2023-02-15T17:12:44;6.90;99.90
2212;DHT22;48849;48.758;9.158;2023-02-15T17:15:25;6.90;99.90
2212;DHT22;48849;48.758;9.158;2023-02-15T17:17:54;6.90;99.90
2212;DHT22;48849;48.758;9.158;2023-02-15T17:20:22;6.80;99.90
2212;DHT22;48849;48.758;9.158;2023-02-15T17:22:49;6.80;99.90
2212;DHT22;48849;48.758;9.158;2023-02-15T17:25:20;6.80;99.90
2212;DHT22;48849;48.758;9.158;2023-02-15T17:27:53;6.80;99.90
2212;DHT22;48849;48.758;9.158;2023-02-15T17:30:26;6.80;99.90
2212;DHT22;48849;48.758;9.158;2023-02-15T17:32:55;6.80;99.90
2212;DHT22;48849;48.758;9.158;2023-02-15T17:35:23;6.80;99.90
2212;DHT22;48849;48.758;9.158;2023-02-15T17:38:01;6.80;99.90
2212;DHT22;48849;48.758;9.158;2023-02-15T17:40:30;6.80;99.90
2212;DHT22;48849;48.758;9.158;2023-02-15T17:42:59;6.80;99.90
2212;DHT22;48849;48.758;9.158;2023-02-15T17:45:31;6.90;99.90
2212;DHT22;48849;48.758;9.158;2023-02-15T17:50:26;8.50;99.90
2212;DHT22;48849;48.758;9.158;2023-02-15T17:52:55;6.80;99.90
2212;DHT22;48849;48.758;9.158;2023-02-15T17:55:24;6.80;99.90
2212;DHT22;48849;48.758;9.158;2023-02-15T17:58:11;6.80;99.90
2212;DHT22;48849;48.758;9.158;2023-02-15T18:00:40;6.80;99.90
2212;DHT22;48849;48.758;9.158;2023-02-15T18:03:32;6.80;99.90
2212;DHT22;48849;48.758;9.158;2023-02-15T18:09:02;6.70;99.90
2212;DHT22;48849;48.758;9.158;2023-02-15T18:14:16;6.70;99.90
2212;DHT22;48849;48.758;9.158;2023-02-15T18:16:43;6.70;99.90
2212;DHT22;48849;48.758;9.158;2023-02-15T18:19:14;6.70;99.90
2212;DHT22;48849;48.758;9.158;2023-02-15T18:21:41;6.70;99.90
2212;DHT22;48849;48.758;9.158;2023-02-15T18:24:17;6.70;99.90
2212;DHT22;48849;48.758;9.158;2023-02-15T18:26:44;6.70;99.90
2212;DHT22;48849;48.758;9.158;2023-02-15T18:29:10;6.70;99.90
2212;DHT22;48849;48.758;9.158;2023-02-15T18:31:39;6.70;99.90
2212;DHT22;48849;48.758;9.158;2023-02-15T18:34:10;6.70;99.90
2212;DHT22;48849;48.758;9.158;2023-02-15T18:36:44;6.60;99.90
2212;DHT22;48849;48.758;9.158;2023-02-15T18:39:23;6.60;99.90
2212;DHT22;48849;48.758;9.158;2023-02-15T18:41:51;6.60;99.90
2212;DHT22;48849;48.758;9.158;2023-02-15T18:44:17;6.60;99.90
2212;DHT22;48849;48.758;9.158;2023-02-15T18:46:45;6.60;99.90
2212;DHT22;48849;48.758;9.158;2023-02-15T18:51:39;6.60;99.90
2212;DHT22;48849;48.758;9.158;2023-02-15T18:54:16;6.60;99.90
2212;DHT22;48849;48.758;9.158;2023-02-15T18:56:42;6.60;99.90